createdAt,value
2022-08-08T00:00:52.080Z,1.20
2022-08-08T00:05:00.615Z,1.40
2022-08-08T00:10:11.334Z,1.52
2022-08-08T00:15:24.381Z,1.50
2022-08-08T00:20:49.420Z,1.50
2022-08-08T00:25:57.950Z,1.38
2022-08-08T00:32:28.204Z,1.40
2022-08-08T00:36:35.245Z,1.50
2022-08-08T00:42:08.851Z,1.67
2022-08-08T00:48:29.333Z,1.63
2022-08-08T00:54:18.335Z,1.48
2022-08-08T00:59:59.472Z,1.10
2022-08-08T01:05:41.830Z,1.00
2022-08-08T01:16:46.400Z,1.00
2022-08-08T01:22:32.461Z,1.00
2022-08-08T01:28:14.978Z,1.00
2022-08-08T01:34:06.039Z,1.10
2022-08-08T01:39:52.450Z,1.30
2022-08-08T01:45:09.976Z,1.20
2022-08-08T01:50:36.449Z,1.40
2022-08-08T01:56:28.502Z,1.50
2022-08-08T02:01:59.600Z,1.75
2022-08-08T02:07:01.790Z,1.88
2022-08-08T02:12:15.014Z,1.88
2022-08-08T02:17:47.954Z,2.50
2022-08-08T02:23:07.756Z,2.50
2022-08-08T02:28:34.862Z,2.40
2022-08-08T02:34:08.153Z,2.53
2022-08-08T02:39:57.421Z,2.92
2022-08-08T02:45:51.647Z,3.10
2022-08-08T02:51:55.700Z,2.60
2022-08-08T02:57:44.400Z,2.83
2022-08-08T03:05:00.228Z,2.60
2022-08-08T03:09:37.460Z,2.88
2022-08-08T03:15:58.343Z,2.70
2022-08-08T03:20:26.653Z,2.85
2022-08-08T03:25:35.779Z,2.80
2022-08-08T03:30:39.647Z,2.70
2022-08-08T03:35:43.302Z,2.33
2022-08-08T03:40:55.970Z,2.70
2022-08-08T03:46:05.195Z,2.63
2022-08-08T03:51:10.963Z,2.67
2022-08-08T03:56:32.277Z,2.83
2022-08-08T04:02:31.713Z,3.17
2022-08-08T07:05:52.799Z,3.17
2022-08-08T07:11:08.753Z,3.58
2022-08-08T07:16:34.179Z,3.70
2022-08-08T07:22:00.439Z,3.83
2022-08-08T07:27:09.313Z,3.33
2022-08-08T07:32:16.995Z,3.78
2022-08-08T07:37:24.721Z,7.80
2022-08-08T07:42:33.068Z,9.10
2022-08-08T07:47:39.777Z,6.40
2022-08-08T07:53:00.804Z,5.50
2022-08-08T07:58:15.543Z,6.20
2022-08-08T08:03:31.202Z,8.30
2022-08-08T08:08:55.388Z,7.63
2022-08-08T08:14:07.950Z,9.00
2022-08-08T08:24:19.750Z,6.20
2022-08-08T08:29:30.956Z,5.28
2022-08-08T08:34:34.490Z,5.90
2022-08-08T08:40:01.679Z,4.30
2022-08-08T08:45:21.078Z,5.93
2022-08-08T08:50:32.718Z,5.10
2022-08-08T08:55:41.940Z,5.68
2022-08-08T09:01:08.903Z,5.10
2022-08-08T09:06:28.372Z,5.40
2022-08-08T09:11:47.536Z,4.97
2022-08-08T09:17:11.516Z,5.55
2022-08-08T09:22:25.985Z,4.57
2022-08-08T09:27:55.456Z,5.25
2022-08-08T09:33:12.458Z,5.40
2022-08-08T09:38:33.468Z,4.65
2022-08-08T09:44:06.903Z,4.65
2022-08-08T09:49:42.441Z,5.65
2022-08-08T09:54:45.577Z,5.45
2022-08-08T10:00:28.698Z,5.25
2022-08-08T10:05:23.010Z,4.68
2022-08-08T10:10:32.588Z,4.53
2022-08-08T10:15:39.658Z,3.85
2022-08-08T10:20:58.321Z,3.50
2022-08-08T10:26:12.281Z,3.95
2022-08-08T10:31:49.144Z,3.78
2022-08-08T10:36:55.052Z,4.25
2022-08-08T10:42:15.473Z,3.40
2022-08-08T10:47:23.116Z,3.72
2022-08-08T10:52:30.895Z,3.38
2022-08-08T10:57:50.259Z,3.05
2022-08-08T11:02:57.131Z,2.88
2022-08-08T11:08:30.543Z,3.28
2022-08-08T11:13:29.597Z,3.05
2022-08-08T11:18:36.115Z,2.70
2022-08-08T11:23:43.267Z,2.85
2022-08-08T11:28:50.101Z,2.60
2022-08-08T11:34:02.930Z,2.58
2022-08-08T11:39:11.042Z,2.97
2022-08-08T11:44:17.187Z,2.92
2022-08-08T11:49:33.902Z,2.90
2022-08-08T11:54:44.672Z,2.70
2022-08-08T12:00:00.257Z,2.88
2022-08-08T12:05:12.286Z,3.10
2022-08-08T12:10:18.703Z,2.70
2022-08-08T12:15:40.073Z,2.60
2022-08-08T12:20:48.326Z,2.42
2022-08-08T12:25:52.695Z,2.67
2022-08-08T12:31:07.185Z,2.30
2022-08-08T12:36:16.408Z,2.75
2022-08-08T12:41:35.019Z,3.03
2022-08-08T12:47:00.925Z,2.40
2022-08-08T12:52:28.182Z,2.42
2022-08-08T12:57:31.277Z,1.90
2022-08-08T13:02:51.531Z,2.15
2022-08-08T13:08:03.847Z,2.50
2022-08-08T13:13:08.505Z,2.30
2022-08-08T13:18:13.648Z,2.30
2022-08-08T13:23:30.635Z,2.53
2022-08-08T13:28:41.401Z,2.65
2022-08-08T13:33:50.288Z,2.30
2022-08-08T13:39:00.265Z,2.13
2022-08-08T13:44:04.812Z,2.40
2022-08-08T13:50:37.262Z,2.00
2022-08-08T13:54:49.803Z,2.35
2022-08-08T14:00:05.178Z,2.30
2022-08-08T14:05:22.005Z,2.38
2022-08-08T14:10:33.330Z,2.10
2022-08-08T14:15:46.369Z,2.15
2022-08-08T14:21:03.254Z,2.20
2022-08-08T14:26:11.259Z,2.42
2022-08-08T14:31:20.345Z,2.65
2022-08-08T14:36:34.981Z,2.58
2022-08-08T14:41:53.848Z,2.60
2022-08-08T14:47:00.368Z,2.60
2022-08-08T14:52:09.722Z,2.55
2022-08-08T14:57:16.175Z,2.45
2022-08-08T15:02:25.566Z,2.55
2022-08-08T15:07:36.854Z,2.60
2022-08-08T15:12:45.535Z,2.50
2022-08-08T15:17:49.984Z,2.60
2022-08-08T15:22:54.484Z,2.30
2022-08-08T15:28:32.612Z,2.30
2022-08-08T15:33:38.584Z,2.92
2022-08-08T15:38:51.631Z,2.63
2022-08-08T15:44:01.244Z,2.78
2022-08-08T15:49:05.656Z,2.80
2022-08-08T15:54:37.653Z,2.60
2022-08-08T16:00:18.204Z,2.73
2022-08-08T16:04:58.826Z,2.63
2022-08-08T16:13:13.851Z,2.88
2022-08-08T16:15:27.759Z,2.70
2022-08-08T16:20:36.497Z,2.90
2022-08-08T16:25:46.125Z,2.75
2022-08-08T16:30:59.659Z,3.00
2022-08-08T16:36:15.765Z,2.65
2022-08-08T16:41:20.355Z,2.80
2022-08-08T16:46:37.652Z,2.70
2022-08-08T16:55:06.469Z,3.25
2022-08-08T16:58:11.841Z,3.20
2022-08-08T17:02:39.376Z,3.10
2022-08-08T17:07:47.989Z,2.90
2022-08-08T17:12:54.531Z,3.20
2022-08-08T17:18:03.461Z,4.20
2022-08-08T17:23:18.042Z,4.30
2022-08-08T17:28:35.382Z,3.60
2022-08-08T17:34:52.707Z,3.38
2022-08-08T17:39:46.056Z,3.05
2022-08-08T17:44:29.287Z,3.28
2022-08-08T17:49:42.553Z,3.80
2022-08-08T17:54:47.156Z,3.58
2022-08-08T18:00:02.145Z,4.72
2022-08-08T18:05:08.954Z,4.20
2022-08-08T18:10:31.367Z,4.28
2022-08-08T18:15:34.977Z,4.65
2022-08-08T18:20:54.475Z,4.53
2022-08-08T18:31:08.240Z,4.88
2022-08-08T18:36:22.974Z,4.75
2022-08-08T18:41:45.542Z,5.37
2022-08-08T18:46:55.987Z,5.53
2022-08-08T18:52:02.346Z,4.70
2022-08-08T18:57:11.132Z,5.07
2022-08-08T19:02:27.528Z,4.80
2022-08-08T19:07:37.569Z,4.70
2022-08-08T19:12:44.723Z,4.80
2022-08-08T19:18:32.283Z,4.28
2022-08-08T19:23:21.903Z,4.70
2022-08-08T19:28:25.428Z,4.32
2022-08-08T19:33:52.313Z,4.90
2022-08-08T19:38:53.921Z,4.80
2022-08-08T19:44:03.894Z,4.28
2022-08-08T19:49:15.824Z,4.25
2022-08-08T19:54:20.850Z,4.05
2022-08-08T19:59:25.449Z,4.25
2022-08-08T20:04:30.498Z,3.85
2022-08-08T20:09:45.134Z,4.13
2022-08-08T20:14:58.883Z,4.40
2022-08-08T20:20:02.885Z,4.45
2022-08-08T20:25:09.001Z,4.70
2022-08-08T20:30:53.554Z,4.68
2022-08-08T20:35:56.920Z,4.22
2022-08-08T20:41:19.114Z,4.47
2022-08-08T20:46:25.418Z,4.53
2022-08-08T20:51:32.282Z,5.40
2022-08-08T20:57:04.733Z,5.30
2022-08-08T21:02:07.772Z,4.82
2022-08-08T21:07:13.276Z,4.97
2022-08-08T21:12:32.451Z,5.32
2022-08-08T21:17:37.764Z,5.22
2022-08-08T21:28:09.724Z,5.18
2022-08-08T21:38:17.967Z,4.90
2022-08-08T21:43:23.200Z,5.30
2022-08-08T21:48:30.398Z,4.65
2022-08-08T21:54:36.675Z,5.10
2022-08-08T21:59:10.004Z,4.60
2022-08-08T22:04:13.484Z,4.35
2022-08-08T22:09:18.739Z,4.35
2022-08-08T22:14:26.733Z,4.97
2022-08-08T22:20:12.127Z,4.50
2022-08-08T22:24:55.043Z,4.60
2022-08-08T22:30:03.339Z,4.60
2022-08-08T22:35:08.641Z,4.30
2022-08-08T22:40:17.105Z,4.43
2022-08-08T22:45:22.076Z,5.63
2022-08-08T22:50:28.383Z,5.05
2022-08-08T22:55:32.437Z,4.97
2022-08-08T23:00:59.994Z,4.93
2022-08-08T23:06:04.289Z,4.93
2022-08-08T23:11:13.297Z,4.30
2022-08-08T23:16:41.665Z,4.45
2022-08-08T23:26:53.459Z,4.22
2022-08-08T23:32:01.843Z,3.38
2022-08-08T23:37:08.441Z,4.07
2022-08-08T23:42:15.051Z,3.40
2022-08-08T23:49:04.023Z,3.53
2022-08-08T23:52:46.248Z,3.35
